Time;durP1;ratioP1;P1;durP2;ratioP2;P2;SDS_P1;SDS_P2;PMS_P1;PMS_P2;Temp;Humidity;BMP_temperature;BMP_pressure;BME280_temperature;BME280_humidity;BME280_pressure;Samples;Min_cycle;Max_cycle;Signal;HPM_P1;HPM_P2
2021/10/27 00:00:31;;;;;;;;;21.00;17.75;;;;;12.29;69.25;101751.09;5078318;28;48992;-60
2021/10/27 00:02:57;;;;;;;;;19.25;17.75;;;;;12.24;69.29;101754.06;5078128;28;53211;-60
2021/10/27 00:05:22;;;;;;;;;21.25;19.00;;;;;12.20;69.34;101755.25;5078453;28;45343;-61
2021/10/27 00:07:48;;;;;;;;;21.25;19.00;;;;;12.17;69.41;101750.22;5077421;28;71143;-60
2021/10/27 00:10:14;;;;;;;;;20.00;17.00;;;;;12.15;69.31;101754.78;5078607;28;45493;-59
2021/10/27 00:12:40;;;;;;;;;18.75;16.75;;;;;12.12;69.10;101750.56;5078421;27;45768;-60
2021/10/27 00:15:06;;;;;;;;;18.00;16.00;;;;;12.10;69.53;101746.38;5077505;27;63472;-60
2021/10/27 00:17:33;;;;;;;;;20.00;16.25;;;;;12.09;68.99;101752.59;5078309;27;45879;-60
2021/10/27 00:19:58;;;;;;;;;22.75;19.00;;;;;12.08;69.48;101750.94;5077184;28;45448;-60
2021/10/27 00:22:24;;;;;;;;;19.50;19.50;;;;;12.05;68.61;101753.78;5077816;27;51087;-61
2021/10/27 00:24:49;;;;;;;;;21.00;18.50;;;;;12.02;68.92;101750.44;5077912;28;45289;-60
2021/10/27 00:27:15;;;;;;;;;20.25;16.50;;;;;11.99;68.44;101757.69;5077213;28;71011;-60
2021/10/27 00:29:41;;;;;;;;;21.25;15.75;;;;;11.95;68.69;101754.44;5076899;28;45372;-60
2021/10/27 00:32:07;;;;;;;;;19.25;15.00;;;;;11.93;68.57;101758.13;5077759;27;45220;-60
2021/10/27 00:34:32;;;;;;;;;15.25;14.75;;;;;11.87;69.15;101760.28;5077867;27;45304;-60
2021/10/27 00:36:58;;;;;;;;;25.75;19.25;;;;;11.87;69.33;101765.56;5076897;28;71079;-60
2021/10/27 00:39:23;;;;;;;;;23.00;18.00;;;;;11.87;68.98;101765.56;5077261;28;64873;-60
2021/10/27 00:41:48;;;;;;;;;21.00;18.00;;;;;11.87;69.26;101764.72;5077954;27;45433;-60
2021/10/27 00:44:21;;;;;;;;;21.75;18.50;;;;;11.86;69.17;101758.63;5077658;28;46262;-60
2021/10/27 00:46:47;;;;;;;;;22.50;18.75;;;;;11.83;69.27;101764.09;5077888;28;45590;-60
2021/10/27 00:49:13;;;;;;;;;22.25;18.50;;;;;11.81;69.67;101760.75;5077683;28;45438;-60
2021/10/27 00:51:38;;;;;;;;;24.00;19.25;;;;;11.79;69.12;101762.66;5077689;28;45513;-60
2021/10/27 00:54:03;;;;;;;;;18.50;17.00;;;;;11.76;69.14;101759.41;5076868;28;64343;-60
2021/10/27 00:56:29;;;;;;;;;20.75;18.50;;;;;11.70;69.46;101758.88;5076316;28;45568;-60
2021/10/27 00:58:54;;;;;;;;;25.50;18.75;;;;;11.65;69.37;101761.06;5059544;28;45312;-60
2021/10/27 01:01:20;;;;;;;;;21.25;17.50;;;;;11.61;69.38;101764.00;5077293;27;46398;-60
2021/10/27 01:03:46;;;;;;;;;19.75;18.00;;;;;11.59;69.74;101761.50;5077320;28;46314;-60
2021/10/27 01:06:11;;;;;;;;;19.00;16.75;;;;;11.58;69.50;101758.00;5076186;27;45414;-60
2021/10/27 01:08:36;;;;;;;;;17.00;17.00;;;;;11.58;69.66;101757.19;5076342;28;45829;-60
2021/10/27 01:11:03;;;;;;;;;18.75;17.75;;;;;11.57;69.55;101758.13;5058368;28;65397;-60
2021/10/27 01:13:28;;;;;;;;;20.50;16.75;;;;;11.58;69.07;101762.44;5076065;28;46539;-60
2021/10/27 01:15:54;;;;;;;;;20.00;17.50;;;;;11.56;69.21;101756.44;5077172;28;45303;-61
2021/10/27 01:18:19;;;;;;;;;17.50;17.25;;;;;11.53;69.34;101751.41;5076739;28;45344;-60
2021/10/27 01:20:44;;;;;;;;;23.00;19.50;;;;;11.49;69.07;101752.59;5076423;28;65505;-60
2021/10/27 01:23:10;;;;;;;;;21.75;18.50;;;;;11.46;68.43;101752.81;5076128;28;64229;-60
2021/10/27 01:25:35;;;;;;;;;18.75;17.00;;;;;11.39;68.74;101755.88;5075869;28;45301;-60
2021/10/27 01:28:01;;;;;;;;;17.75;14.75;;;;;11.34;68.55;101755.38;5075959;28;45264;-60
2021/10/27 01:30:27;;;;;;;;;21.75;17.25;;;;;11.32;68.24;101753.81;5077136;28;45530;-60
2021/10/27 01:32:52;;;;;;;;;19.75;18.25;;;;;11.29;68.64;101754.88;5075638;27;46185;-60
2021/10/27 01:35:18;;;;;;;;;20.50;19.75;;;;;11.26;68.71;101749.81;5076846;27;45441;-60
2021/10/27 01:37:43;;;;;;;;;24.00;20.00;;;;;11.20;68.56;101748.47;5077058;28;45314;-60
2021/10/27 01:40:13;;;;;;;;;23.50;20.75;;;;;11.20;69.29;101739.72;5076952;28;45255;-60
2021/10/27 01:42:39;;;;;;;;;26.50;18.00;;;;;11.22;68.81;101735.19;5076710;28;46808;-60
2021/10/27 01:45:04;;;;;;;;;22.25;20.50;;;;;11.22;69.43;101743.09;5076773;28;45229;-61
2021/10/27 01:47:30;;;;;;;;;23.25;21.50;;;;;11.20;69.47;101735.31;5075682;28;45266;-60
2021/10/27 01:49:55;;;;;;;;;14.00;11.50;;;;;11.20;69.69;101729.22;5076862;28;45442;-60
2021/10/27 01:52:21;;;;;;;;;20.75;18.25;;;;;11.19;69.70;101732.78;5076109;28;57290;-60
2021/10/27 01:54:46;;;;;;;;;21.25;20.25;;;;;11.19;69.41;101733.66;5075904;28;65027;-61
2021/10/27 01:57:12;;;;;;;;;17.75;17.75;;;;;11.16;69.60;101738.28;5076598;27;52430;-60
2021/10/27 01:59:38;;;;;;;;;21.00;18.75;;;;;11.12;69.84;101728.00;5076773;28;45288;-60
2021/10/27 02:02:03;;;;;;;;;22.50;17.50;;;;;11.12;69.33;101727.16;5076399;28;45334;-60
2021/10/27 02:04:29;;;;;;;;;24.50;19.50;;;;;11.07;69.33;101724.84;5076668;27;45283;-60
2021/10/27 02:06:54;;;;;;;;;20.75;18.00;;;;;11.06;68.77;101722.31;5076701;28;45757;-60
2021/10/27 02:09:19;;;;;;;;;18.50;18.00;;;;;11.03;69.48;101715.50;5076491;28;45333;-60
2021/10/27 02:11:45;;;;;;;;;25.50;19.75;;;;;11.03;69.03;101720.75;5075690;28;62930;-60
2021/10/27 02:14:11;;;;;;;;;17.00;14.50;;;;;11.04;69.14;101713.69;5075607;28;66625;-59
2021/10/27 02:16:36;;;;;;;;;18.25;16.75;;;;;11.02;69.15;101711.19;5076395;28;45311;-60
2021/10/27 02:19:02;;;;;;;;;18.25;17.25;;;;;11.00;69.50;101713.09;5076348;28;45286;-60
2021/10/27 02:21:27;;;;;;;;;18.00;17.00;;;;;10.97;69.67;101718.56;5076176;28;47685;-60
2021/10/27 02:23:52;;;;;;;;;18.25;16.00;;;;;10.97;69.84;101718.56;5074184;28;70003;-60
2021/10/27 02:26:21;;;;;;;;;17.50;17.50;;;;;10.96;69.41;101712.44;5076389;28;45210;-60
2021/10/27 02:28:47;;;;;;;;;23.75;21.25;;;;;10.94;69.73;101701.19;5074990;28;45564;-60
2021/10/27 02:31:12;;;;;;;;;19.25;19.25;;;;;10.96;69.74;101719.53;5078506;27;46141;-59
2021/10/27 02:33:38;;;;;;;;;18.00;15.75;;;;;10.93;69.49;101711.84;5077868;28;61959;-60
2021/10/27 02:36:03;;;;;;;;;25.25;20.25;;;;;10.94;69.50;101716.16;5077999;27;55822;-60
2021/10/27 02:38:29;;;;;;;;;21.75;19.25;;;;;10.94;69.45;101721.41;5079718;28;45453;-60
2021/10/27 02:40:54;;;;;;;;;17.75;14.75;;;;;10.96;69.48;101722.97;5079248;27;54876;-60
2021/10/27 02:43:20;;;;;;;;;24.75;21.25;;;;;10.94;69.15;101724.03;5079700;27;45303;-60
2021/10/27 02:45:48;;;;;;;;;18.50;16.00;;;;;10.92;69.35;101718.06;5079686;28;45291;-59
2021/10/27 02:48:15;;;;;;;;;18.25;17.00;;;;;10.90;68.90;101718.16;5079530;28;45464;-60
2021/10/27 02:50:41;;;;;;;;;19.00;16.00;;;;;10.91;68.71;101719.00;5078348;28;45313;-60
2021/10/27 02:53:06;;;;;;;;;19.50;14.00;;;;;10.89;68.41;101708.56;5079586;28;45792;-60
2021/10/27 02:55:32;;;;;;;;;18.75;13.75;;;;;10.88;68.34;101719.22;5078994;27;61485;-60
2021/10/27 02:57:59;;;;;;;;;20.25;15.25;;;;;10.86;67.82;101707.97;5079508;28;45564;-60
2021/10/27 03:00:25;;;;;;;;;15.75;13.00;;;;;10.80;67.45;101707.44;5061317;28;48273;-60
2021/10/27 03:02:50;;;;;;;;;12.25;12.25;;;;;10.77;67.58;101715.56;5079458;28;45379;-60
2021/10/27 03:05:16;;;;;;;;;19.25;13.50;;;;;10.73;67.41;101716.72;5079482;28;45405;-60
2021/10/27 03:07:42;;;;;;;;;17.75;14.50;;;;;10.71;67.27;101720.41;5079322;28;45350;-60
2021/10/27 03:10:08;;;;;;;;;15.00;14.25;;;;;10.69;67.28;101715.25;5079094;28;45428;-60
2021/10/27 03:12:33;;;;;;;;;18.50;15.00;;;;;10.70;68.10;101716.94;5079213;27;45370;-60
2021/10/27 03:14:58;;;;;;;;;18.50;15.00;;;;;10.68;68.54;101710.94;5078414;27;64684;-60
2021/10/27 03:17:24;;;;;;;;;18.25;16.50;;;;;10.65;68.58;101714.63;5079200;28;45504;-60
2021/10/27 03:19:49;;;;;;;;;18.50;14.25;;;;;10.63;68.83;101713.03;5078985;28;46230;-60
2021/10/27 03:22:14;;;;;;;;;18.75;14.75;;;;;10.64;69.16;101714.72;5079023;28;46542;-60
2021/10/27 03:24:40;;;;;;;;;21.25;14.50;;;;;10.61;68.92;101707.91;5077467;27;63032;-60
2021/10/27 03:27:05;;;;;;;;;18.00;14.50;;;;;10.58;68.81;101707.28;5078208;28;45334;-60
2021/10/27 03:29:31;;;;;;;;;13.25;12.50;;;;;10.54;68.40;101701.41;5077534;27;50972;-60
2021/10/27 03:31:56;;;;;;;;;12.25;10.50;;;;;10.50;68.34;101706.03;5077718;28;45391;-60
2021/10/27 03:34:21;;;;;;;;;14.00;13.25;;;;;10.45;68.29;101702.03;5077116;28;62540;-60
2021/10/27 03:36:47;;;;;;;;;19.75;14.00;;;;;10.41;68.23;101695.31;5077214;28;59250;-60
2021/10/27 03:39:12;;;;;;;;;20.75;16.75;;;;;10.39;68.28;101703.31;5077541;28;45880;-60
2021/10/27 03:41:38;;;;;;;;;23.50;16.25;;;;;10.38;68.51;101702.44;5075341;27;61501;-60
2021/10/27 03:44:04;;;;;;;;;22.50;18.50;;;;;10.34;69.03;101698.31;5076371;27;45399;-60
2021/10/27 03:46:29;;;;;;;;;23.50;19.00;;;;;10.32;69.45;101702.88;5076358;28;45308;-60
2021/10/27 03:48:55;;;;;;;;;22.75;20.00;;;;;10.28;69.40;101705.78;5077356;28;45954;-60
2021/10/27 03:51:20;;;;;;;;;24.75;18.00;;;;;10.24;69.53;101698.13;5077422;28;45279;-60
2021/10/27 03:53:46;;;;;;;;;21.50;20.00;;;;;10.23;70.08;101696.44;5075218;28;56363;-60
2021/10/27 03:56:11;;;;;;;;;26.25;19.75;;;;;10.22;69.40;101700.00;5076715;28;58384;-60
2021/10/27 03:58:37;;;;;;;;;21.25;18.25;;;;;10.19;69.64;101700.22;5076525;28;68492;-60
2021/10/27 04:01:02;;;;;;;;;24.75;19.25;;;;;10.19;69.55;101702.84;5077248;28;45336;-60
2021/10/27 04:03:27;;;;;;;;;23.75;20.25;;;;;10.18;69.68;101705.59;5077311;28;45308;-60
2021/10/27 04:05:53;;;;;;;;;24.25;19.00;;;;;10.17;69.92;101704.75;5076014;28;45344;-60
2021/10/27 04:08:18;;;;;;;;;25.75;19.25;;;;;10.16;69.86;101703.06;5076320;27;66213;-60
2021/10/27 04:10:47;;;;;;;;;23.75;21.25;;;;;10.17;69.62;101702.13;5077005;27;45380;-63
2021/10/27 04:13:13;;;;;;;;;23.00;19.75;;;;;10.16;69.78;101708.31;5075999;28;45454;-60
2021/10/27 04:15:39;;;;;;;;;23.25;19.00;;;;;10.17;69.62;101699.50;5077095;27;45260;-60
2021/10/27 04:18:04;;;;;;;;;30.50;20.75;;;;;10.18;69.61;101701.16;5076022;28;67707;-60
2021/10/27 04:20:30;;;;;;;;;26.25;19.00;;;;;10.19;70.06;101700.22;5076932;27;45411;-60
2021/10/27 04:22:55;;;;;;;;;23.00;19.75;;;;;10.17;69.59;101699.50;5027676;28;1371635;-60
2021/10/27 04:25:20;;;;;;;;;27.00;23.00;;;;;10.13;69.46;101698.00;5078354;28;45340;-59
2021/10/27 04:27:46;;;;;;;;;22.50;20.00;;;;;10.10;69.75;101706.09;5077416;28;64659;-60
2021/10/27 04:30:11;;;;;;;;;24.50;20.00;;;;;10.09;69.92;101705.28;5077064;28;64324;-60
2021/10/27 04:32:37;;;;;;;;;24.50;21.00;;;;;10.08;69.74;101705.34;5077954;27;45316;-60
2021/10/27 04:35:03;;;;;;;;;24.75;21.50;;;;;10.06;69.85;101704.66;5076131;28;45474;-60
2021/10/27 04:37:33;;;;;;;;;25.00;20.75;;;;;10.05;69.56;101710.84;5077756;28;45932;-60
2021/10/27 04:39:58;;;;;;;;;24.75;21.25;;;;;10.04;69.78;101710.00;5077737;27;46009;-60
2021/10/27 04:42:24;;;;;;;;;18.25;17.50;;;;;10.05;69.37;101711.69;5077927;28;45451;-60
2021/10/27 04:44:50;;;;;;;;;25.00;22.25;;;;;10.05;69.68;101716.09;5077221;28;64844;-60
2021/10/27 04:47:15;;;;;;;;;21.25;18.00;;;;;10.03;69.86;101718.00;5077920;27;45498;-60
2021/10/27 04:49:40;;;;;;;;;21.00;20.00;;;;;9.99;69.60;101714.72;5076885;28;65979;-60
2021/10/27 04:52:06;;;;;;;;;21.75;20.00;;;;;9.97;69.77;101713.16;5076582;28;59780;-60
2021/10/27 04:54:31;;;;;;;;;21.25;17.50;;;;;9.98;69.84;101715.66;5077007;28;45310;-60
2021/10/27 04:56:57;;;;;;;;;20.00;19.00;;;;;9.96;69.80;101717.53;5077493;28;46502;-60
2021/10/27 04:59:22;;;;;;;;;21.75;19.00;;;;;9.94;69.50;101720.28;5076466;27;66955;-60
2021/10/27 05:01:48;;;;;;;;;20.25;18.00;;;;;9.92;69.75;101722.16;5077431;28;45402;-60
2021/10/27 05:04:15;;;;;;;;;18.75;18.00;;;;;9.91;69.84;101720.47;5077466;27;45277;-60
2021/10/27 05:06:40;;;;;;;;;23.25;18.00;;;;;9.88;69.51;101719.84;5077090;28;45482;-60
2021/10/27 05:09:06;;;;;;;;;17.50;15.75;;;;;9.85;69.74;101722.66;5077262;28;45223;-59
2021/10/27 05:11:31;;;;;;;;;26.25;19.25;;;;;9.83;70.17;101716.66;5076412;28;58366;-60
2021/10/27 05:13:56;;;;;;;;;22.25;19.25;;;;;9.80;70.04;101723.81;5076657;28;60703;-60
2021/10/27 05:16:22;;;;;;;;;20.00;17.50;;;;;9.82;70.41;101726.34;5077133;27;46247;-60
2021/10/27 05:18:47;;;;;;;;;19.00;14.50;;;;;9.83;69.83;101721.91;5076250;28;67082;-59
2021/10/27 05:21:13;;;;;;;;;18.00;17.50;;;;;9.82;70.06;101721.09;5076406;27;63371;-60
2021/10/27 05:23:38;;;;;;;;;21.00;17.75;;;;;9.81;69.82;101727.28;5075322;28;45500;-60
2021/10/27 05:26:03;;;;;;;;;23.75;19.50;;;;;9.81;69.71;101724.66;5076389;28;63589;-60
2021/10/27 05:28:29;;;;;;;;;26.50;21.75;;;;;9.80;69.72;101722.97;5075673;28;45327;-60
2021/10/27 05:30:54;;;;;;;;;23.25;18.25;;;;;9.80;70.15;101725.59;5076476;28;56647;-60
2021/10/27 05:33:19;;;;;;;;;21.75;17.50;;;;;9.78;70.25;101715.22;5076234;28;66144;-60
2021/10/27 05:35:45;;;;;;;;;19.75;19.00;;;;;9.79;70.36;101719.53;5075899;28;71418;-59
2021/10/27 05:38:10;;;;;;;;;23.75;20.50;;;;;9.79;70.03;101713.41;5076149;28;62650;-60
2021/10/27 05:40:36;;;;;;;;;18.50;18.25;;;;;9.79;70.45;101718.66;5075982;28;69295;-60
2021/10/27 05:43:13;;;;;;;;;22.25;20.00;;;;;9.78;70.52;101698.63;5077143;28;45301;-60
2021/10/27 05:45:39;;;;;;;;;28.25;20.00;;;;;9.78;70.23;101696.84;5075460;27;46047;-60
2021/10/27 05:48:06;;;;;;;;;22.75;21.50;;;;;9.77;70.51;101700.41;5076644;28;45794;-60
2021/10/27 05:50:36;;;;;;;;;22.00;21.50;;;;;9.76;70.31;101703.13;5076761;27;45285;-60
2021/10/27 05:55:46;;;;;;;;;25.50;23.50;;;;;9.74;69.98;101697.13;5076643;28;45428;-60
2021/10/27 05:58:12;;;;;;;;;28.00;24.00;;;;;9.73;69.87;101700.69;5076385;28;45828;-60
2021/10/27 06:00:38;;;;;;;;;23.75;20.75;;;;;9.72;70.05;101704.25;5076139;28;45364;-60
2021/10/27 06:03:04;;;;;;;;;28.00;25.00;;;;;9.72;70.45;101704.25;5076375;28;45477;-60
2021/10/27 06:05:29;;;;;;;;;21.75;21.00;;;;;9.72;70.23;101704.25;5075886;27;45354;-60
2021/10/27 06:07:55;;;;;;;;;23.25;20.25;;;;;9.73;70.38;101698.06;5076251;27;45311;-60
2021/10/27 06:10:22;;;;;;;;;26.00;22.00;;;;;9.72;70.44;101694.63;5076401;28;45310;-59
2021/10/27 06:12:52;;;;;;;;;31.25;23.50;;;;;9.72;70.55;101694.63;5076441;28;45215;-60
2021/10/27 06:15:18;;;;;;;;;24.50;21.00;;;;;9.73;70.38;101698.06;5076289;27;46274;-60
2021/10/27 06:17:44;;;;;;;;;29.25;24.50;;;;;9.72;70.67;101699.00;5076176;28;45306;-60
2021/10/27 06:20:10;;;;;;;;;33.00;27.50;;;;;9.71;70.42;101698.19;5076343;28;45249;-61
2021/10/27 06:22:35;;;;;;;;;28.75;23.50;;;;;9.71;71.11;101713.09;5076326;28;45597;-60
2021/10/27 06:25:01;;;;;;;;;29.50;25.50;;;;;9.70;71.18;101707.00;5073772;28;69388;-60
2021/10/27 06:27:26;;;;;;;;;30.25;25.50;;;;;9.71;71.57;101713.09;5076199;27;45271;-60
2021/10/27 06:29:56;;;;;;;;;28.50;21.00;;;;;9.69;71.62;101707.94;5076259;28;45387;-60
2021/10/27 06:35:04;;;;;;;;;26.00;25.50;;;;;9.68;71.96;101713.28;5076032;27;46184;-63
2021/10/27 06:37:50;;;;;;;;;24.75;21.25;;;;;9.67;72.32;101706.34;5076234;28;45854;-59
2021/10/27 06:48:27;;;;;;;;;32.50;26.25;;;;;9.67;72.45;101706.34;5075971;28;45384;-59
2021/10/27 06:50:52;;;;;;;;;27.25;23.25;;;;;9.65;72.46;101715.16;5075891;28;45370;-59
2021/10/27 06:53:19;;;;;;;;;28.75;25.00;;;;;9.65;72.74;101716.97;5075783;28;45426;-60
2021/10/27 06:55:44;;;;;;;;;32.50;28.00;;;;;9.63;72.74;101722.28;5075682;27;46213;-59
2021/10/27 06:58:11;;;;;;;;;32.50;25.00;;;;;9.64;72.83;101725.78;5075790;28;45369;-60
2021/10/27 07:00:44;;;;;;;;;35.25;29.00;;;;;9.62;73.04;101731.09;5075830;28;45449;-60
2021/10/27 07:17:16;;;;;;;;;28.50;26.50;;;;;9.61;73.72;101742.53;5054451;28;45401;-60
2021/10/27 07:19:42;;;;;;;;;31.50;28.25;;;;;9.62;73.88;101740.78;5077766;28;45331;-60
2021/10/27 07:22:08;;;;;;;;;33.75;26.00;;;;;9.65;73.84;101746.66;5078031;27;45588;-60
2021/10/27 07:24:33;;;;;;;;;29.75;26.50;;;;;9.67;73.71;101737.84;5078768;28;45546;-59
2021/10/27 07:27:03;;;;;;;;;28.50;27.00;;;;;9.69;73.39;101735.97;5078973;28;45522;-60
2021/10/27 07:29:29;;;;;;;;;39.25;30.50;;;;;9.70;73.46;101742.88;5078889;28;45852;-60
2021/10/27 07:31:55;;;;;;;;;31.50;28.25;;;;;9.71;73.53;101748.06;5078761;27;45350;-59
2021/10/27 07:34:29;;;;;;;;;41.25;33.75;;;;;9.73;73.52;101753.19;5078911;28;45640;-60
2021/10/27 07:40:04;;;;;;;;;31.00;27.00;;;;;9.78;73.75;101761.59;5078599;27;46033;-59
2021/10/27 07:42:30;;;;;;;;;30.00;25.75;;;;;9.84;73.60;101757.72;5078926;28;45317;-60
2021/10/27 07:44:55;;;;;;;;;32.00;27.50;;;;;9.90;73.52;101770.44;5077180;28;50952;-60
2021/10/27 07:47:20;;;;;;;;;28.75;23.50;;;;;9.95;73.30;101769.22;5077814;28;69241;-59
2021/10/27 07:49:47;;;;;;;;;29.25;25.75;;;;;9.97;73.41;101769.09;5077374;28;56971;-59
2021/10/27 07:52:12;;;;;;;;;30.75;27.50;;;;;10.00;73.48;101768.91;5077336;27;45319;-59
2021/10/27 07:54:38;;;;;;;;;28.25;24.25;;;;;10.07;73.63;101774.56;5078134;27;45322;-59
2021/10/27 07:57:04;;;;;;;;;32.25;25.50;;;;;10.13;73.30;101782.06;5078370;27;45372;-60
2021/10/27 07:59:31;;;;;;;;;29.25;26.25;;;;;10.18;73.08;101785.22;5076884;28;45378;-59
2021/10/27 08:01:57;;;;;;;;;27.75;24.50;;;;;10.22;73.15;101786.69;5076955;28;45355;-59
2021/10/27 08:04:23;;;;;;;;;26.75;22.75;;;;;10.27;73.35;101782.91;5075667;27;45452;-60
2021/10/27 08:06:48;;;;;;;;;25.75;24.50;;;;;10.32;73.34;101786.09;5074798;27;72122;-60
2021/10/27 08:09:14;;;;;;;;;27.50;23.50;;;;;10.38;73.19;101783.03;5074717;27;64000;-59
2021/10/27 08:11:40;;;;;;;;;29.25;24.50;;;;;10.43;73.27;101775.72;5071622;28;45412;-59
2021/10/27 08:14:06;;;;;;;;;28.25;22.25;;;;;10.49;73.06;101777.94;5075852;28;45465;-60
2021/10/27 08:16:31;;;;;;;;;27.00;24.50;;;;;10.58;73.10;101780.88;5074789;28;45467;-59
2021/10/27 08:18:58;;;;;;;;;27.00;24.75;;;;;10.65;72.68;101782.97;5074938;27;45468;-60
2021/10/27 08:21:23;;;;;;;;;31.25;24.75;;;;;10.74;72.75;101783.28;5075791;27;45429;-59
2021/10/27 08:23:49;;;;;;;;;26.75;24.25;;;;;10.83;72.44;101783.47;5075240;28;45598;-59
2021/10/27 08:26:17;;;;;;;;;25.50;22.75;;;;;10.91;72.64;101779.47;5056494;28;46122;-60
2021/10/27 08:28:52;;;;;;;;;22.25;21.75;;;;;11.00;72.13;101789.34;5073713;27;45678;-59
2021/10/27 08:31:31;;;;;;;;;29.25;25.75;;;;;11.07;72.42;101782.72;5073163;28;45863;-60
2021/10/27 08:36:23;;;;;;;;;28.25;25.50;;;;;11.21;71.94;101789.63;5074294;28;49763;-62
2021/10/27 08:38:49;;;;;;;;;29.00;26.75;;;;;11.27;71.15;101785.69;5074193;28;46082;-59
2021/10/27 08:41:15;;;;;;;;;32.00;25.50;;;;;11.30;71.43;101776.78;5074049;27;45552;-60
2021/10/27 08:43:40;;;;;;;;;27.00;24.50;;;;;11.33;71.22;101787.91;5075181;28;45528;-60
2021/10/27 08:46:07;;;;;;;;;34.00;29.00;;;;;11.37;71.07;101773.56;5071813;28;68667;-60
2021/10/27 08:48:37;;;;;;;;;34.00;28.00;;;;;11.38;71.32;101770.00;5073124;28;45513;-60
2021/10/27 08:51:03;;;;;;;;;24.25;23.50;;;;;11.37;71.19;101770.94;5074681;28;45569;-60
2021/10/27 08:53:30;;;;;;;;;32.00;29.25;;;;;11.38;71.10;101771.78;5073634;28;45744;-60
2021/10/27 08:55:56;;;;;;;;;28.25;25.25;;;;;11.38;71.53;101769.16;5073211;28;46626;-59
2021/10/27 08:58:26;;;;;;;;;29.25;27.25;;;;;11.41;71.08;101772.41;5075515;28;45472;-59
2021/10/27 09:33:46;;;;;;;;;32.25;25.00;;;;;11.50;71.86;101759.53;5071605;28;45493;-59
2021/10/27 09:33:58;;;;;;;;;27.50;24.75;;;;;11.63;71.86;101751.56;5073971;28;45653;-59
2021/10/27 09:36:40;;;;;;;;;26.25;24.75;;;;;11.67;71.48;101753.03;5059608;28;45450;-59
2021/10/27 09:44:52;;;;;;;;;29.00;27.00;;;;;11.79;71.36;101756.53;5074691;28;45386;-60
2021/10/27 10:06:09;;;;;;;;;33.00;28.00;;;;;12.36;70.72;101751.44;5073151;28;45504;-60
2021/10/27 10:08:34;;;;;;;;;36.00;29.50;;;;;12.43;70.73;101747.38;5053193;28;45570;-60
2021/10/27 10:11:00;;;;;;;;;31.75;27.50;;;;;12.51;70.64;101759.97;5071658;27;65695;-60
2021/10/27 10:13:25;;;;;;;;;31.25;29.25;;;;;12.60;70.08;101751.34;5073180;28;58739;-59
2021/10/27 10:15:51;;;;;;;;;33.50;28.50;;;;;12.69;70.29;101755.06;5071486;28;55519;-60
2021/10/27 10:18:23;;;;;;;;;31.25;28.00;;;;;12.76;69.77;101754.47;5072670;28;45372;-60
2021/10/27 10:20:51;;;;;;;;;30.25;25.25;;;;;12.91;69.68;101744.50;5072326;28;46216;-60
2021/10/27 10:23:24;;;;;;;;;27.00;24.25;;;;;13.09;70.00;101754.56;5072317;27;45459;-60
2021/10/27 10:25:51;;;;;;;;;27.50;24.25;;;;;13.36;69.81;101755.91;5072272;28;45664;-61
2021/10/27 10:28:18;;;;;;;;;29.50;26.00;;;;;13.62;68.70;101747.72;5073667;27;45599;-60
2021/10/27 10:30:55;;;;;;;;;26.00;22.50;;;;;13.93;68.33;101756.59;5071921;28;46196;-59
2021/10/27 10:33:33;;;;;;;;;24.25;21.00;;;;;14.25;67.26;101749.56;5072290;28;46095;-60
2021/10/27 10:36:05;;;;;;;;;24.00;23.25;;;;;14.56;66.77;101752.22;5056818;28;45233;-60
2021/10/27 10:38:48;;;;;;;;;31.25;28.50;;;;;14.84;65.29;101760.41;5056849;28;45497;-61
2021/10/27 10:41:32;;;;;;;;;28.50;24.00;;;;;15.10;64.08;101757.28;5072308;28;45610;-60
2021/10/27 11:37:34;;;;;;;;;18.25;14.50;;;;;19.28;53.01;101686.69;5075170;27;45575;-61
2021/10/27 11:40:18;;;;;;;;;16.00;14.75;;;;;19.15;52.67;101690.81;5059560;28;45599;-61
2021/10/27 11:45:22;;;;;;;;;18.00;14.75;;;;;18.88;52.80;101688.25;5073786;28;45522;-60
2021/10/27 11:47:49;;;;;;;;;14.75;13.50;;;;;18.74;53.14;101686.25;5073818;27;46380;-61
2021/10/27 11:50:18;;;;;;;;;17.50;14.00;;;;;18.57;53.23;101680.84;5073358;27;45742;-61
2021/10/27 11:52:52;;;;;;;;;13.00;9.75;;;;;18.41;53.90;101678.97;5057901;28;45308;-61
2021/10/27 11:55:18;;;;;;;;;14.00;10.50;;;;;18.29;53.28;101677.56;5074301;28;45366;-60
2021/10/27 11:57:44;;;;;;;;;7.50;6.75;;;;;18.13;53.65;101681.81;5075266;27;46548;-61
2021/10/27 12:00:48;;;;;;;;;8.75;7.00;;;;;17.99;53.88;101666.44;5075361;27;46016;-61
2021/10/27 12:03:23;;;;;;;;;9.25;7.00;;;;;17.86;53.93;101658.84;5074660;28;45531;-61
2021/10/27 12:09:05;;;;;;;;;9.00;6.25;;;;;17.63;54.13;101648.75;5022601;28;45963;-61
2021/10/27 12:12:03;;;;;;;;;6.00;4.25;;;;;17.53;54.12;101642.69;5067668;28;46121;-60
2021/10/27 12:14:53;;;;;;;;;6.00;5.00;;;;;17.39;54.58;101642.25;5076140;28;45488;-61
2021/10/27 12:17:29;;;;;;;;;6.00;5.00;;;;;17.26;54.59;101634.69;5072932;28;45509;-61
2021/10/27 12:19:54;;;;;;;;;4.00;4.00;;;;;17.15;54.60;101627.81;5073463;28;45527;-61
2021/10/27 12:22:20;;;;;;;;;4.50;4.50;;;;;17.08;55.02;101623.22;5074811;28;68316;-61
2021/10/27 12:24:55;;;;;;;;;5.50;4.50;;;;;17.03;55.14;101621.88;5070852;27;45368;-61
2021/10/27 12:27:27;;;;;;;;;4.75;4.75;;;;;16.97;55.09;101611.84;5075428;27;45456;-61
2021/10/27 12:29:53;;;;;;;;;5.00;5.00;;;;;16.91;55.25;101605.31;5074918;28;45425;-60
2021/10/27 12:32:19;;;;;;;;;5.00;5.00;;;;;16.90;56.01;101608.13;5074094;28;45371;-64
2021/10/27 12:34:49;;;;;;;;;5.00;4.75;;;;;16.88;56.12;101602.13;5075470;27;45288;-61
2021/10/27 12:40:24;;;;;;;;;5.75;4.25;;;;;16.86;56.06;101593.50;5073633;28;46125;-61
2021/10/27 12:43:03;;;;;;;;;4.00;4.00;;;;;16.87;55.49;101585.38;5071799;28;45419;-61
2021/10/27 12:45:31;;;;;;;;;4.00;4.00;;;;;16.92;55.72;101582.28;5075091;28;45433;-61
2021/10/27 12:48:04;;;;;;;;;6.25;5.25;;;;;16.97;55.40;101576.53;5074534;27;45512;-61
2021/10/27 12:50:30;;;;;;;;;5.75;4.00;;;;;17.00;55.23;101571.72;5073049;28;46452;-60
2021/10/27 12:52:59;;;;;;;;;3.75;2.50;;;;;17.03;55.23;101579.38;5074717;28;45451;-61
2021/10/27 12:55:26;;;;;;;;;7.00;5.50;;;;;17.10;55.77;101573.47;5072447;28;45534;-61
2021/10/27 12:57:59;;;;;;;;;6.75;4.50;;;;;17.17;55.27;101575.38;5071837;28;45548;-61
2021/10/27 13:00:47;;;;;;;;;5.50;4.50;;;;;17.23;54.79;101567.75;5073921;28;46436;-61
2021/10/27 13:11:07;;;;;;;;;2.25;2.25;;;;;17.49;54.43;101552.66;5074453;28;46260;-61
2021/10/27 13:29:26;;;;;;;;;4.75;4.75;;;;;17.62;53.68;101541.59;5074568;28;45337;-61
2021/10/27 13:31:56;;;;;;;;;5.50;5.00;;;;;17.60;54.20;101532.13;5074303;28;45969;-61
2021/10/27 13:34:23;;;;;;;;;5.00;4.00;;;;;17.58;54.02;101531.47;5071455;27;46071;-61
2021/10/27 13:36:52;;;;;;;;;5.75;5.00;;;;;17.52;54.34;101530.25;5073279;27;45479;-61
2021/10/27 13:39:18;;;;;;;;;3.00;3.00;;;;;17.49;54.93;101535.88;5073787;28;45539;-61
2021/10/27 13:41:48;;;;;;;;;5.00;4.75;;;;;17.47;55.00;101524.59;5073768;27;46558;-61
2021/10/27 13:44:18;;;;;;;;;6.00;3.25;;;;;17.46;55.52;101525.59;5072043;28;46026;-61
2021/10/27 13:57:53;;;;;;;;;7.00;7.00;;;;;17.33;54.97;101515.38;5073515;27;45507;-61
2021/10/27 14:06:08;;;;;;;;;5.50;4.25;;;;;17.38;54.66;101506.94;5072108;28;45171;-61
2021/10/27 14:12:04;;;;;;;;;6.75;5.00;;;;;17.30;54.54;101497.94;5073567;28;45449;-61
2021/10/27 14:14:09;;;;;;;;;7.00;5.00;;;;;17.26;54.65;101499.22;5070788;27;45788;-60
2021/10/27 15:21:29;;;;;;;;;5.00;3.75;;;;;16.32;61.03;101451.06;5076502;28;45436;-60
2021/10/27 15:32:12;;;;;;;;;5.50;3.25;;;;;16.05;62.09;101444.81;5076607;27;45347;-61
2021/10/27 15:35:05;;;;;;;;;3.50;3.50;;;;;15.97;62.55;101444.72;5074674;28;45418;-61
2021/10/27 15:40:34;;;;;;;;;4.00;4.00;;;;;15.84;62.94;101451.19;5074896;28;45479;-61
2021/10/27 15:51:07;;;;;;;;;5.00;5.00;;;;;15.59;63.63;101442.13;5075258;27;45889;-61
2021/10/27 15:53:34;;;;;;;;;4.00;4.00;;;;;15.53;63.97;101440.88;5075790;28;45792;-61